createdAt,value
2022-08-05T00:03:26.897Z,4.85
2022-08-05T00:08:34.681Z,3.85
2022-08-05T00:13:39.608Z,3.83
2022-08-05T00:18:40.100Z,3.10
2022-08-05T00:23:46.556Z,4.82
2022-08-05T00:28:53.034Z,4.00
2022-08-05T00:34:54.151Z,3.88
2022-08-05T00:39:13.887Z,3.22
2022-08-05T00:44:13.802Z,3.83
2022-08-05T00:49:13.981Z,3.88
2022-08-05T00:54:13.245Z,4.13
2022-08-05T00:59:11.355Z,3.28
2022-08-05T01:04:11.840Z,3.28
2022-08-05T01:09:12.592Z,3.13
2022-08-05T01:14:27.839Z,3.22
2022-08-05T01:25:02.988Z,3.38
2022-08-05T01:30:12.482Z,4.28
2022-08-05T01:35:51.873Z,3.53
2022-08-05T01:40:40.910Z,3.33
2022-08-05T01:45:43.114Z,3.35
2022-08-05T01:50:43.484Z,3.63
2022-08-05T01:55:52.667Z,3.33
2022-08-05T02:00:53.376Z,3.90
2022-08-05T02:05:53.499Z,3.50
2022-08-05T02:11:03.489Z,3.70
2022-08-05T02:16:07.415Z,3.70
2022-08-05T02:21:17.546Z,4.18
2022-08-05T02:26:22.094Z,3.55
2022-08-05T02:31:28.311Z,3.33
2022-08-05T02:36:31.612Z,3.88
2022-08-05T02:41:36.382Z,5.93
2022-08-05T02:47:00.186Z,4.43
2022-08-05T02:52:03.710Z,4.18
2022-08-05T02:57:03.671Z,3.90
2022-08-05T03:02:05.983Z,4.25
2022-08-05T03:07:04.897Z,4.32
2022-08-05T03:12:05.526Z,3.95
2022-08-05T03:17:08.973Z,4.72
2022-08-05T03:22:16.760Z,4.20
2022-08-05T03:27:17.648Z,4.32
2022-08-05T03:32:19.518Z,4.95
2022-08-05T03:37:17.788Z,4.70
2022-08-05T03:42:16.102Z,4.65
2022-08-05T03:47:14.206Z,5.20
2022-08-05T03:52:37.258Z,5.20
2022-08-05T03:57:44.497Z,8.27
2022-08-05T04:02:57.845Z,6.03
2022-08-05T04:07:59.073Z,4.93
2022-08-05T04:12:59.027Z,5.47
2022-08-05T04:17:57.544Z,4.95
2022-08-05T04:22:59.612Z,5.22
2022-08-05T04:28:00.657Z,5.13
2022-08-05T04:33:02.110Z,4.70
2022-08-05T04:38:06.664Z,4.90
2022-08-05T04:43:05.629Z,5.10
2022-08-05T04:48:18.670Z,5.22
2022-08-05T04:53:27.789Z,5.43
2022-08-05T04:58:31.531Z,5.43
2022-08-05T05:03:29.635Z,5.35
2022-08-05T05:08:42.761Z,5.13
2022-08-05T05:13:41.035Z,5.75
2022-08-05T05:19:02.529Z,5.20
2022-08-05T05:24:08.947Z,5.00
2022-08-05T05:29:10.174Z,5.55
2022-08-05T05:34:13.014Z,5.95
2022-08-05T05:39:15.268Z,5.63
2022-08-05T05:44:36.381Z,4.38
2022-08-05T05:49:35.357Z,5.20
2022-08-05T05:54:49.670Z,5.78
2022-08-05T05:59:49.271Z,5.25
2022-08-05T06:04:49.301Z,5.55
2022-08-05T06:10:01.466Z,4.70
2022-08-05T06:15:05.493Z,4.20
2022-08-05T06:20:07.058Z,5.07
2022-08-05T06:25:59.207Z,6.13
2022-08-05T06:30:36.342Z,5.95
2022-08-05T06:36:07.208Z,6.28
2022-08-05T06:40:54.058Z,7.18
2022-08-05T06:46:04.112Z,10.43
2022-08-05T06:51:09.368Z,11.88
2022-08-05T06:56:16.270Z,9.88
2022-08-05T07:01:32.060Z,10.07
2022-08-05T07:06:31.944Z,6.90
2022-08-05T07:11:32.129Z,5.97
2022-08-05T07:17:58.749Z,6.60
2022-08-05T07:22:08.601Z,7.70
2022-08-05T07:27:08.920Z,8.05
2022-08-05T07:32:08.221Z,5.60
2022-08-05T07:37:06.340Z,5.20
2022-08-05T07:42:14.125Z,6.25
2022-08-05T07:47:14.864Z,5.47
2022-08-05T07:52:13.109Z,4.90
2022-08-05T07:57:17.553Z,4.03
2022-08-05T08:03:14.670Z,4.53
2022-08-05T08:08:00.006Z,5.65
2022-08-05T08:13:00.720Z,3.80
2022-08-05T08:18:01.987Z,3.20
2022-08-05T08:23:03.336Z,4.00
2022-08-05T08:28:03.075Z,3.20
2022-08-05T08:33:04.650Z,4.75
2022-08-05T08:38:06.835Z,3.10
2022-08-05T08:44:54.620Z,2.65
2022-08-05T08:49:03.384Z,2.80
2022-08-05T08:53:46.878Z,2.70
2022-08-05T08:58:48.027Z,2.67
2022-08-05T09:03:55.312Z,2.90
2022-08-05T09:08:53.894Z,3.63
2022-08-05T09:14:09.264Z,2.97
2022-08-05T09:19:14.712Z,4.15
2022-08-05T09:24:13.441Z,3.13
2022-08-05T09:29:18.914Z,2.78
2022-08-05T09:34:17.382Z,3.13
2022-08-05T09:39:16.604Z,3.30
2022-08-05T09:44:34.507Z,2.83
2022-08-05T09:49:54.560Z,3.00
2022-08-05T09:54:58.674Z,2.95
2022-08-05T10:00:04.770Z,3.47
2022-08-05T10:05:15.617Z,3.30
2022-08-05T10:10:17.772Z,3.22
2022-08-05T10:15:26.149Z,3.40
2022-08-05T10:20:25.062Z,4.03
2022-08-05T10:25:23.446Z,3.97
2022-08-05T10:32:46.881Z,4.35
2022-08-05T10:35:44.336Z,3.60
2022-08-05T10:40:59.875Z,3.67
2022-08-05T10:46:06.554Z,3.30
2022-08-05T10:51:22.520Z,3.03
2022-08-05T10:56:25.971Z,3.95
2022-08-05T11:01:55.644Z,2.70
2022-08-05T11:07:08.236Z,2.65
2022-08-05T11:12:07.029Z,2.58
2022-08-05T11:17:58.985Z,2.78
2022-08-05T11:23:02.200Z,2.60
2022-08-05T11:28:40.376Z,2.65
2022-08-05T11:33:54.009Z,2.67
2022-08-05T11:38:54.814Z,2.80
2022-08-05T11:44:06.692Z,2.75
2022-08-05T11:49:10.171Z,2.60
2022-08-05T11:54:08.372Z,2.58
2022-08-05T11:59:16.025Z,2.40
2022-08-05T12:04:20.907Z,2.97
2022-08-05T12:09:38.680Z,2.40
2022-08-05T12:14:47.228Z,2.70
2022-08-05T12:20:16.991Z,3.00
2022-08-05T12:25:08.334Z,2.90
2022-08-05T12:30:15.485Z,2.67
2022-08-05T12:35:16.889Z,3.55
2022-08-05T12:40:26.827Z,2.40
2022-08-05T12:45:42.542Z,2.65
2022-08-05T12:52:11.174Z,2.60
2022-08-05T12:56:35.008Z,2.42
2022-08-05T13:02:02.216Z,2.88
2022-08-05T13:06:59.189Z,2.40
2022-08-05T13:12:05.087Z,2.88
2022-08-05T13:17:10.865Z,2.78
2022-08-05T13:22:12.215Z,2.92
2022-08-05T13:27:10.948Z,3.10
2022-08-05T13:32:09.605Z,2.70
2022-08-05T13:37:08.353Z,2.53
2022-08-05T13:42:14.773Z,3.47
2022-08-05T13:47:34.568Z,3.50
2022-08-05T13:52:31.785Z,2.72
2022-08-05T13:57:51.375Z,2.75
2022-08-05T14:02:50.233Z,3.00
2022-08-05T14:07:59.845Z,2.65
2022-08-05T14:13:07.794Z,2.60
2022-08-05T14:18:14.979Z,2.50
2022-08-05T14:23:23.422Z,2.50
2022-08-05T14:28:27.006Z,2.25
2022-08-05T14:33:25.576Z,2.60
2022-08-05T14:38:31.935Z,2.50
2022-08-05T14:44:00.073Z,2.53
2022-08-05T14:48:50.459Z,3.53
2022-08-05T14:54:26.525Z,5.03
2022-08-05T14:59:10.478Z,4.47
2022-08-05T15:04:11.444Z,2.40
2022-08-05T15:09:09.923Z,2.35
2022-08-05T15:14:10.044Z,3.42
2022-08-05T15:19:08.186Z,2.45
2022-08-05T15:24:21.504Z,2.20
2022-08-05T15:29:21.811Z,2.53
2022-08-05T15:34:32.086Z,2.42
2022-08-05T15:40:59.539Z,2.78
2022-08-05T15:44:51.529Z,2.70
2022-08-05T15:49:56.770Z,2.63
2022-08-05T15:54:56.962Z,2.72
2022-08-05T15:59:57.722Z,3.05
2022-08-05T16:04:56.045Z,2.40
2022-08-05T16:09:54.350Z,3.08
2022-08-05T16:14:52.421Z,2.60
2022-08-05T16:20:05.217Z,3.42
2022-08-05T16:25:10.249Z,3.30
2022-08-05T16:30:23.092Z,3.75
2022-08-05T16:35:28.365Z,4.47
2022-08-05T16:40:30.471Z,3.88
2022-08-05T16:46:03.549Z,3.03
2022-08-05T16:50:48.191Z,3.13
2022-08-05T16:55:47.521Z,2.40
2022-08-05T17:00:46.909Z,3.13
2022-08-05T17:05:53.214Z,3.20
2022-08-05T17:10:52.494Z,3.03
2022-08-05T17:15:55.556Z,3.55
2022-08-05T17:21:07.545Z,3.40
2022-08-05T17:26:05.699Z,3.55
2022-08-05T17:31:08.151Z,4.45
2022-08-05T17:36:33.959Z,3.55
2022-08-05T17:42:17.691Z,3.80
2022-08-05T17:46:44.836Z,4.20
2022-08-05T17:51:46.133Z,3.80
2022-08-05T17:56:48.952Z,4.22
2022-08-05T18:01:50.537Z,4.00
2022-08-05T18:06:50.233Z,3.35
2022-08-05T18:11:52.378Z,4.25
2022-08-05T18:16:52.093Z,4.53
2022-08-05T18:22:09.702Z,4.30
2022-08-05T18:27:18.607Z,3.55
2022-08-05T18:32:17.311Z,3.75
2022-08-05T18:37:34.019Z,3.80
2022-08-05T18:42:33.152Z,3.88
2022-08-05T18:47:31.430Z,3.47
2022-08-05T18:52:35.597Z,3.90
2022-08-05T18:57:50.100Z,3.70
2022-08-05T19:02:51.791Z,3.78
2022-08-05T19:07:52.603Z,3.50
2022-08-05T19:12:51.126Z,4.47
2022-08-05T19:17:59.788Z,3.53
2022-08-05T19:23:22.574Z,3.95
2022-08-05T19:28:27.061Z,3.83
2022-08-05T19:33:35.491Z,4.10
2022-08-05T19:38:36.596Z,3.75
2022-08-05T19:44:05.375Z,4.00
2022-08-05T19:48:52.998Z,3.88
2022-08-05T19:54:04.634Z,3.65
2022-08-05T19:59:51.202Z,3.58
2022-08-05T20:04:22.571Z,3.55
2022-08-05T20:09:23.341Z,3.72
2022-08-05T20:14:27.001Z,3.78
2022-08-05T20:19:25.479Z,3.65
2022-08-05T20:24:35.922Z,4.20
2022-08-05T20:29:34.109Z,4.20
2022-08-05T20:34:33.535Z,3.90
2022-08-05T20:39:36.544Z,3.75
2022-08-05T20:44:37.948Z,4.13
2022-08-05T20:49:39.672Z,3.70
2022-08-05T20:54:43.573Z,4.07
2022-08-05T21:00:20.723Z,3.72
2022-08-05T21:05:16.196Z,4.03
2022-08-05T21:10:14.420Z,4.13
2022-08-05T21:15:14.020Z,3.92
2022-08-05T21:20:13.326Z,4.38
2022-08-05T21:25:33.475Z,4.03
2022-08-05T21:30:33.116Z,4.35
2022-08-05T21:35:55.956Z,4.20
2022-08-05T21:40:49.498Z,3.67
2022-08-05T21:45:56.533Z,3.83
2022-08-05T21:50:55.833Z,4.20
2022-08-05T21:56:04.371Z,3.70
2022-08-05T22:01:06.357Z,4.47
2022-08-05T22:06:08.876Z,5.03
2022-08-05T22:11:08.585Z,4.28
2022-08-05T22:16:32.172Z,4.97
2022-08-05T22:21:28.215Z,4.65
2022-08-05T22:26:49.702Z,4.38
2022-08-05T22:31:55.201Z,4.47
2022-08-05T22:36:59.514Z,5.30
2022-08-05T22:42:09.740Z,5.72
2022-08-05T22:47:12.472Z,5.38
2022-08-05T22:52:32.271Z,5.00
2022-08-05T22:57:34.206Z,4.53
2022-08-05T23:02:40.078Z,5.82
2022-08-05T23:07:48.472Z,5.45
2022-08-05T23:12:51.149Z,5.60
2022-08-05T23:18:00.485Z,5.07
2022-08-05T23:23:05.709Z,4.60
2022-08-05T23:28:07.860Z,5.05
2022-08-05T23:33:07.468Z,5.40
2022-08-05T23:38:20.806Z,5.03
2022-08-05T23:43:24.508Z,5.10
2022-08-05T23:48:36.647Z,5.80
2022-08-05T23:53:46.402Z,6.18
2022-08-05T23:58:45.158Z,6.25
